Time;durP1;ratioP1;P1;durP2;ratioP2;P2;SDS_P1;SDS_P2;PMS_P1;PMS_P2;Temp;Humidity;BMP_temperature;BMP_pressure;BME280_temperature;BME280_humidity;BME280_pressure;Samples;Min_cycle;Max_cycle;Signal;HPM_P1;HPM_P2
2022/08/30 06:48:08;;;;;;;7.20;3.52;;;;;;;17.96;80.21;98310.70;1858344;77;21513;-60
2022/08/30 06:50:35;;;;;;;8.60;4.35;;;;;;;18.12;79.93;98319.27;1851074;77;20970;-60
2022/08/30 06:53:04;;;;;;;7.35;4.28;;;;;;;18.28;79.01;98316.73;1850924;77;20908;-60
2022/08/30 06:55:33;;;;;;;7.53;4.35;;;;;;;18.41;77.34;98313.77;1835376;77;20980;-59
2022/08/30 06:58:00;;;;;;;6.75;4.25;;;;;;;18.50;77.19;98312.34;1836309;77;22009;-59
2022/08/30 07:00:27;;;;;;;7.80;4.33;;;;;;;18.57;77.54;98324.01;1839125;77;20994;-60
2022/08/30 07:02:54;;;;;;;7.75;3.90;;;;;;;18.65;76.30;98320.42;1843907;75;21048;-61
2022/08/30 07:05:22;;;;;;;7.40;3.87;;;;;;;18.69;76.82;98325.41;1838707;77;21058;-61
2022/08/30 07:07:52;;;;;;;6.50;4.00;;;;;;;18.80;76.77;98331.43;1849299;77;21496;-66
2022/08/30 07:10:20;;;;;;;6.85;3.87;;;;;;;18.89;76.44;98328.05;1843989;77;21244;-66
2022/08/30 07:12:47;;;;;;;5.83;4.12;;;;;;;19.01;76.20;98332.16;1838341;77;20955;-67
2022/08/30 07:15:14;;;;;;;7.60;3.90;;;;;;;19.08;75.71;98339.18;1839373;77;21023;-69
2022/08/30 07:20:28;;;;;;;7.47;4.00;;;;;;;19.19;74.75;98329.25;1848202;77;21470;-65
2022/08/30 07:22:54;;;;;;;6.15;3.60;;;;;;;19.22;75.00;98334.01;1848490;77;21091;-65
2022/08/30 07:25:21;;;;;;;5.97;3.60;;;;;;;19.30;75.08;98338.53;1846737;77;21381;-67
2022/08/30 07:27:50;;;;;;;6.80;3.45;;;;;;;19.35;74.23;98330.16;1837012;77;20991;-65
2022/08/30 07:30:16;;;;;;;5.30;3.55;;;;;;;19.44;74.30;98336.30;1844950;77;21017;-67
2022/08/30 07:32:44;;;;;;;6.97;3.85;;;;;;;19.53;72.88;98341.05;1823891;77;20978;-66
2022/08/30 07:35:11;;;;;;;11.18;3.83;;;;;;;19.55;72.89;98340.94;1841645;77;21230;-67
2022/08/30 07:37:42;;;;;;;7.03;3.92;;;;;;;19.58;72.66;98337.55;1842184;77;20919;-66
2022/08/30 07:40:13;;;;;;;6.00;3.43;;;;;;;19.60;72.63;98338.00;1825166;77;21535;-66
2022/08/30 07:42:41;;;;;;;5.67;3.40;;;;;;;19.65;72.19;98343.77;1762699;80;21123;-66
2022/08/30 07:45:12;;;;;;;5.85;3.27;;;;;;;19.71;72.27;98353.30;1776167;80;21102;-66
2022/08/30 07:47:40;;;;;;;6.72;3.40;;;;;;;19.77;70.87;98335.61;1773675;80;21238;-67
2022/08/30 07:50:08;;;;;;;5.62;3.67;;;;;;;19.85;71.52;98342.86;1755578;80;21000;-67
2022/08/30 07:52:35;;;;;;;6.62;3.60;;;;;;;19.97;70.23;98347.48;1761008;80;20979;-65
2022/08/30 07:55:04;;;;;;;5.17;3.30;;;;;;;19.98;70.21;98344.41;1767611;80;20948;-67
2022/08/30 07:57:33;;;;;;;6.70;3.20;;;;;;;20.01;69.87;98351.09;1779671;80;20944;-67
2022/08/30 07:59:59;;;;;;;5.40;3.00;;;;;;;20.03;68.43;98352.34;1772806;79;21044;-67
2022/08/30 08:02:26;;;;;;;6.60;3.60;;;;;;;20.07;68.18;98346.43;1793874;79;20971;-66
2022/08/30 08:04:53;;;;;;;7.22;3.12;;;;;;;20.12;68.94;98345.39;1805493;79;21483;-66
2022/08/30 08:07:19;;;;;;;5.53;3.17;;;;;;;20.20;69.55;98345.84;1751522;80;21048;-66
2022/08/30 08:09:47;;;;;;;8.23;3.40;;;;;;;20.36;69.96;98354.33;1796971;79;21105;-67
2022/08/30 08:12:13;;;;;;;5.12;3.10;;;;;;;20.58;69.86;98354.92;1797507;79;21807;-66
2022/08/30 08:14:40;;;;;;;5.83;3.05;;;;;;;20.74;66.34;98356.56;1793370;79;21369;-66
2022/08/30 08:17:07;;;;;;;5.30;2.87;;;;;;;20.81;65.48;98347.78;1769380;79;20979;-66
2022/08/30 08:19:34;;;;;;;7.65;2.80;;;;;;;20.76;65.45;98345.31;1772347;80;21038;-65
2022/08/30 08:22:01;;;;;;;6.90;2.90;;;;;;;20.70;66.29;98352.16;1766461;80;21047;-65
2022/08/30 08:24:28;;;;;;;6.12;2.85;;;;;;;20.69;65.82;98351.92;1765507;80;21233;-65
2022/08/30 08:26:59;;;;;;;5.92;2.87;;;;;;;20.76;65.66;98352.12;1768272;79;21056;-66
2022/08/30 08:29:26;;;;;;;4.05;2.50;;;;;;;20.78;63.20;98355.28;1789754;79;21016;-65
2022/08/30 08:31:55;;;;;;;7.00;2.52;;;;;;;20.82;61.11;98354.23;1788668;79;21067;-65
2022/08/30 08:34:22;;;;;;;3.98;2.62;;;;;;;20.81;61.65;98353.23;1790419;79;20955;-65
2022/08/30 08:36:49;;;;;;;4.50;2.40;;;;;;;20.86;61.04;98353.78;1759057;80;21979;-66
2022/08/30 08:39:16;;;;;;;4.70;2.85;;;;;;;20.93;61.44;98353.17;1799998;79;21458;-65
2022/08/30 08:42:21;;;;;;;4.90;2.27;;;;;;;21.05;61.94;98349.05;1795016;79;20943;-65
2022/08/30 08:45:08;;;;;;;6.22;2.90;;;;;;;21.20;61.09;98356.42;1783762;79;21419;-65
2022/08/30 08:47:47;;;;;;;4.53;2.77;;;;;;;21.29;61.05;98351.59;1751802;80;20983;-65
2022/08/30 08:50:17;;;;;;;5.65;2.75;;;;;;;21.46;61.75;98351.81;1758449;80;21337;-65
2022/08/30 08:55:52;;;;;;;6.35;2.77;;;;;;;21.87;60.36;98349.13;1711691;80;20935;-65
2022/08/30 08:58:29;;;;;;;3.77;2.50;;;;;;;21.96;60.31;98343.69;1774042;80;20911;-66
2022/08/30 09:00:57;;;;;;;4.90;2.42;;;;;;;22.01;58.91;98345.34;1791899;80;20868;-66
2022/08/30 09:03:26;;;;;;;4.03;2.25;;;;;;;22.01;55.54;98349.44;1787751;80;21226;-65
2022/08/30 09:05:54;;;;;;;5.40;2.40;;;;;;;22.01;57.75;98339.89;1776527;80;20946;-65
2022/08/30 09:08:22;;;;;;;3.75;2.52;;;;;;;22.08;57.07;98330.50;1776312;79;21072;-64
2022/08/30 09:11:01;;;;;;;6.37;2.58;;;;;;;22.25;58.28;98338.28;1766498;80;21034;-66
2022/08/30 09:13:28;;;;;;;5.12;2.52;;;;;;;22.46;56.02;98338.72;1753317;80;21056;-64
2022/08/30 09:15:56;;;;;;;8.13;2.85;;;;;;;22.51;57.13;98338.44;1788841;79;21114;-66
2022/08/30 09:18:45;;;;;;;7.58;2.12;;;;;;;22.52;55.19;98344.69;1776030;80;20920;-65
2022/08/30 09:21:13;;;;;;;5.95;2.22;;;;;;;22.52;55.07;98344.09;1783273;79;20971;-63
2022/08/30 09:23:48;;;;;;;8.68;2.60;;;;;;;22.54;52.87;98336.33;1771428;80;21063;-60
2022/08/30 09:26:15;;;;;;;5.22;2.35;;;;;;;22.53;53.25;98338.86;1780885;79;21551;-66
2022/08/30 09:28:49;;;;;;;3.95;2.10;;;;;;;22.53;53.36;98331.23;1694086;81;21281;-67
2022/08/30 09:31:26;;;;;;;3.53;2.20;;;;;;;22.50;53.74;98325.92;1764749;80;21040;-63
2022/08/30 09:33:56;;;;;;;4.22;2.30;;;;;;;22.59;55.01;98334.67;1758444;80;21697;-63
2022/08/30 09:36:45;;;;;;;5.33;2.25;;;;;;;22.78;54.86;98331.95;1763299;80;20932;-68
2022/08/30 09:39:29;;;;;;;4.60;1.72;;;;;;;22.86;54.14;98324.13;1761127;80;21047;-64
2022/08/30 09:42:13;;;;;;;2.62;1.90;;;;;;;23.04;55.55;98321.70;1740731;81;21189;-67
2022/08/30 09:44:39;;;;;;;4.40;1.95;;;;;;;23.35;53.11;98328.89;1735116;81;20980;-64
2022/08/30 09:47:06;;;;;;;3.87;1.87;;;;;;;23.43;51.24;98317.73;1787096;79;20893;-62
2022/08/30 09:49:42;;;;;;;5.80;1.72;;;;;;;23.38;49.22;98324.87;1776049;79;21095;-66
2022/08/30 09:52:31;;;;;;;5.58;2.15;;;;;;;23.20;48.99;98318.87;1788775;79;21052;-64
2022/08/30 09:55:15;;;;;;;5.90;1.92;;;;;;;23.08;48.86;98320.61;1795195;79;21293;-66
2022/08/30 09:57:51;;;;;;;5.37;1.90;;;;;;;23.14;51.14;98312.34;1802278;79;21019;-67
2022/08/30 10:00:22;;;;;;;5.03;1.92;;;;;;;23.35;51.11;98313.28;1725782;82;21065;-67
2022/08/30 10:03:00;;;;;;;5.33;1.87;;;;;;;23.45;48.31;98305.05;1753625;80;20985;-63
2022/08/30 10:05:32;;;;;;;5.53;2.02;;;;;;;23.34;48.52;98310.90;1727938;80;21043;-63
2022/08/30 10:08:34;;;;;;;6.67;2.22;;;;;;;23.36;49.01;98307.25;1794599;78;20943;-64
2022/08/30 10:11:22;;;;;;;2.98;1.77;;;;;;;23.43;48.36;98311.47;1779109;78;21060;-63
2022/08/30 10:14:14;;;;;;;3.70;1.70;;;;;;;23.35;48.92;98301.56;1685215;83;21091;-62
2022/08/30 10:17:25;;;;;;;3.83;2.10;;;;;;;23.26;49.30;98306.46;1774190;78;21076;-63
2022/08/30 10:20:12;;;;;;;4.37;2.05;;;;;;;23.17;49.39;98307.29;1797508;78;21098;-62
2022/08/30 10:23:05;;;;;;;3.87;1.70;;;;;;;23.25;50.03;98300.80;1798304;78;21090;-65
2022/08/30 10:25:47;;;;;;;3.65;2.12;;;;;;;23.51;50.07;98292.06;1793796;78;21051;-59
2022/08/30 10:28:43;;;;;;;6.05;1.70;;;;;;;23.70;48.69;98297.43;1782293;78;21518;-60
2022/08/30 10:31:27;;;;;;;4.47;2.08;;;;;;;23.59;48.45;98290.23;1781144;78;21054;-61
2022/08/30 10:33:58;;;;;;;3.47;1.90;;;;;;;23.37;48.77;98289.11;1822273;78;20904;-60
2022/08/30 10:36:32;;;;;;;4.67;1.90;;;;;;;23.44;49.63;98287.06;1810304;78;21470;-63
2022/08/30 10:38:59;;;;;;;4.87;1.90;;;;;;;23.75;48.91;98286.75;1807108;78;21684;-61
2022/08/30 10:41:37;;;;;;;3.50;1.50;;;;;;;24.00;49.11;98283.77;1837782;77;21180;-63
2022/08/30 10:44:29;;;;;;;6.78;1.82;;;;;;;24.21;47.93;98288.78;1828074;77;21109;-62
2022/08/30 10:47:38;;;;;;;4.80;2.05;;;;;;;24.25;48.78;98288.23;1841831;77;20927;-59
2022/08/30 10:50:21;;;;;;;5.45;2.20;;;;;;;24.21;47.46;98286.05;1827071;77;21175;-61
2022/08/30 10:53:11;;;;;;;9.73;2.00;;;;;;;23.90;48.31;98284.44;1819787;77;21561;-61
2022/08/30 10:55:49;;;;;;;5.78;2.10;;;;;;;23.65;49.17;98276.44;1813583;77;21098;-64
2022/08/30 10:58:16;;;;;;;4.65;2.08;;;;;;;23.44;49.96;98278.86;1814030;77;20955;-59
2022/08/30 11:01:07;;;;;;;7.60;2.27;;;;;;;23.40;50.41;98277.45;1837754;77;21027;-59
2022/08/30 11:04:30;;;;;;;4.83;2.20;;;;;;;23.40;49.35;98271.98;1828929;77;21260;-60
2022/08/30 11:07:44;;;;;;;3.20;1.67;;;;;;;23.61;50.45;98266.84;1838988;77;21387;-62
2022/08/30 11:10:51;;;;;;;7.58;2.58;;;;;;;24.08;48.52;98273.16;1841218;77;21596;-62
2022/08/30 11:13:28;;;;;;;2.98;1.72;;;;;;;24.30;47.21;98278.33;1834193;77;20871;-66
2022/08/30 11:16:15;;;;;;;4.55;1.90;;;;;;;24.36;46.65;98274.88;1838857;77;21018;-66
2022/08/30 11:18:46;;;;;;;5.15;2.12;;;;;;;24.56;47.36;98287.03;1823492;77;21079;-66
2022/08/30 11:21:40;;;;;;;2.20;1.60;;;;;;;24.74;45.40;98275.09;1825653;77;21399;-65
2022/08/30 11:24:19;;;;;;;5.70;1.80;;;;;;;24.92;45.30;98268.43;1842991;77;20938;-65
2022/08/30 11:26:56;;;;;;;9.73;2.22;;;;;;;25.06;45.82;98275.44;1846271;77;21004;-62
2022/08/30 11:29:34;;;;;;;4.55;2.10;;;;;;;24.94;44.39;98276.48;1769770;79;21456;-64
2022/08/30 11:32:17;;;;;;;4.25;1.77;;;;;;;24.72;46.51;98269.78;1768548;80;21115;-61
2022/08/30 11:34:49;;;;;;;6.17;1.90;;;;;;;24.72;45.92;98271.16;1798173;79;21492;-64
2022/08/30 11:37:42;;;;;;;6.00;2.15;;;;;;;24.84;45.98;98269.55;1751578;81;21034;-59
2022/08/30 11:40:26;;;;;;;4.70;1.60;;;;;;;24.98;43.92;98260.09;1768563;79;21096;-59
2022/08/30 11:42:53;;;;;;;4.00;1.80;;;;;;;25.08;43.76;98255.30;1792282;79;21062;-62
2022/08/30 11:45:34;;;;;;;3.47;1.70;;;;;;;25.32;44.89;98260.16;1803332;79;21243;-61
2022/08/30 11:48:08;;;;;;;8.03;1.80;;;;;;;25.59;42.56;98262.15;1798312;79;20995;-60
2022/08/30 11:50:53;;;;;;;7.15;2.10;;;;;;;25.77;42.32;98270.69;1771765;79;20924;-63
2022/08/30 11:53:37;;;;;;;4.40;1.90;;;;;;;25.73;42.01;98266.35;1794057;79;21105;-63
2022/08/30 11:56:17;;;;;;;4.10;1.77;;;;;;;25.40;42.80;98276.88;1797986;79;21059;-61
2022/08/30 11:58:52;;;;;;;7.87;2.27;;;;;;;25.17;42.79;98274.94;1766572;80;21102;-61
2022/08/30 12:01:36;;;;;;;5.05;1.92;;;;;;;24.86;43.02;98275.43;1784996;79;21032;-59
2022/08/30 12:04:21;;;;;;;4.03;1.65;;;;;;;24.47;43.63;98266.80;1798597;79;20976;-63
2022/08/30 12:06:58;;;;;;;4.97;2.80;;;;;;;24.46;44.63;98263.84;1773310;80;21092;-61
2022/08/30 12:09:31;;;;;;;4.28;2.10;;;;;;;24.69;44.34;98266.42;1757652;80;21119;-61
2022/08/30 12:12:07;;;;;;;2.93;2.00;;;;;;;24.79;43.35;98258.93;1796124;79;21247;-61
2022/08/30 12:14:51;;;;;;;4.08;1.90;;;;;;;24.83;44.01;98254.27;1798627;79;21020;-61
2022/08/30 12:20:47;;;;;;;5.22;1.98;;;;;;;25.12;43.00;98253.36;1766322;79;21047;-60
2022/08/30 12:23:26;;;;;;;3.55;1.90;;;;;;;25.32;42.36;98250.56;1783159;80;21553;-58
2022/08/30 12:26:24;;;;;;;3.05;1.70;;;;;;;25.51;41.49;98247.60;1775023;79;21181;-60
2022/08/30 12:29:07;;;;;;;5.45;1.98;;;;;;;25.65;41.68;98251.80;1775485;80;21033;-63
2022/08/30 12:31:53;;;;;;;4.62;2.00;;;;;;;25.72;40.39;98253.22;1759438;80;20947;-64
2022/08/30 12:34:41;;;;;;;3.25;1.80;;;;;;;25.36;40.98;98254.14;1776821;79;20915;-63
2022/08/30 12:37:20;;;;;;;3.42;1.90;;;;;;;24.98;42.59;98245.02;1778879;80;21105;-64
2022/08/30 12:40:09;;;;;;;4.33;2.00;;;;;;;24.71;44.09;98250.39;1782112;79;21262;-59
2022/08/30 12:42:43;;;;;;;7.50;1.80;;;;;;;24.81;43.51;98242.90;1760552;80;20979;-62
2022/08/30 12:45:14;;;;;;;3.80;1.92;;;;;;;25.08;44.17;98238.24;1784163;78;20891;-63
2022/08/30 12:47:49;;;;;;;9.43;2.10;;;;;;;25.62;44.64;98238.88;1781842;79;21698;-63
2022/08/30 12:50:23;;;;;;;5.05;2.08;;;;;;;25.85;41.47;98232.31;1773357;78;26627;-60
2022/08/30 12:53:05;;;;;;;5.42;2.02;;;;;;;25.68;42.18;98235.17;1832456;77;21116;-59
2022/08/30 12:55:35;;;;;;;4.33;2.25;;;;;;;25.38;42.20;98233.98;1838692;77;21015;-62
2022/08/30 12:58:13;;;;;;;5.45;2.20;;;;;;;25.34;42.88;98234.55;1842474;77;21516;-60
2022/08/30 13:00:41;;;;;;;7.03;2.22;;;;;;;25.55;41.94;98234.72;1825938;77;21082;-64
2022/08/30 13:03:35;;;;;;;5.62;2.20;;;;;;;25.64;41.95;98236.53;1836574;77;21015;-65
2022/08/30 13:06:07;;;;;;;6.30;2.45;;;;;;;25.85;42.83;98229.58;1837480;77;21530;-65
2022/08/30 13:08:45;;;;;;;5.40;2.15;;;;;;;25.98;40.36;98225.34;1826503;77;21017;-64
2022/08/30 13:11:24;;;;;;;4.33;2.55;;;;;;;25.93;40.47;98221.01;1831513;77;21001;-64
2022/08/30 13:14:18;;;;;;;4.75;2.30;;;;;;;25.97;40.06;98219.64;1810230;77;21048;-60
2022/08/30 13:16:44;;;;;;;3.85;2.25;;;;;;;26.01;40.42;98225.92;1819882;76;21443;-66
2022/08/30 13:19:36;;;;;;;6.53;2.72;;;;;;;26.06;40.15;98215.95;1813782;79;22119;-64
2022/08/30 13:22:04;;;;;;;6.35;2.30;;;;;;;26.16;40.75;98207.00;1781567;79;21423;-63
2022/08/30 13:24:31;;;;;;;6.30;2.27;;;;;;;26.16;40.75;98207.00;1769913;79;20940;-61
2022/08/30 13:27:10;;;;;;;6.92;2.65;;;;;;;26.70;38.88;98207.31;1749695;80;21028;-64
2022/08/30 13:29:37;;;;;;;9.05;2.62;;;;;;;26.70;38.88;98207.31;1766863;80;21059;-62
2022/08/30 13:32:04;;;;;;;5.30;2.40;;;;;;;26.56;39.97;98200.42;1793915;79;21129;-62
2022/08/30 13:34:34;;;;;;;5.67;2.20;;;;;;;26.40;39.37;98203.55;1765135;80;21070;-64
2022/08/30 13:37:00;;;;;;;6.97;2.47;;;;;;;25.82;40.87;98198.20;1748155;81;21049;-63
2022/08/30 13:39:26;;;;;;;6.03;2.27;;;;;;;25.82;40.87;98198.20;1828381;77;21046;-64
2022/08/30 13:41:57;;;;;;;3.58;2.20;;;;;;;25.99;42.11;98200.25;1830079;77;21008;-62
2022/08/30 13:44:23;;;;;;;6.12;2.05;;;;;;;26.44;41.65;98187.86;1833288;77;21263;-62
2022/08/30 13:46:52;;;;;;;6.20;2.05;;;;;;;26.95;40.61;98192.44;1822424;77;20967;-64
2022/08/30 13:49:23;;;;;;;6.95;2.40;;;;;;;27.27;37.92;98191.05;1798396;77;21506;-64
2022/08/30 13:51:52;;;;;;;4.90;1.98;;;;;;;27.23;37.58;98183.98;1836396;77;21049;-64
2022/08/30 13:54:22;;;;;;;5.37;2.42;;;;;;;27.26;38.40;98187.30;1816904;77;21487;-63
2022/08/30 13:56:51;;;;;;;7.28;2.12;;;;;;;27.46;37.60;98184.36;1827535;77;21349;-63
2022/08/30 13:59:20;;;;;;;3.75;2.10;;;;;;;27.56;37.94;98184.91;1827301;77;20911;-63
2022/08/30 14:01:49;;;;;;;4.12;2.60;;;;;;;27.66;37.66;98185.48;1843668;77;20880;-65
2022/08/30 14:04:16;;;;;;;6.08;3.08;;;;;;;27.73;37.73;98185.45;1818355;77;21033;-65
2022/08/30 14:06:42;;;;;;;5.15;2.60;;;;;;;27.80;37.26;98177.17;1818724;77;21842;-64
2022/08/30 14:09:11;;;;;;;5.03;2.50;;;;;;;27.65;37.31;98179.80;1841043;77;22366;-61
2022/08/30 14:11:37;;;;;;;4.15;2.25;;;;;;;27.38;37.83;98175.34;1848628;77;20935;-61
2022/08/30 14:14:04;;;;;;;6.28;2.67;;;;;;;27.25;37.91;98173.38;1848197;77;20983;-60
2022/08/30 14:16:30;;;;;;;5.92;2.37;;;;;;;27.14;38.62;98165.92;1848614;77;21481;-59
2022/08/30 14:18:57;;;;;;;3.17;1.95;;;;;;;26.99;39.04;98171.23;1848931;77;21003;-61
2022/08/30 14:21:24;;;;;;;4.45;2.00;;;;;;;26.89;38.96;98166.54;1849451;77;21762;-62
2022/08/30 14:23:53;;;;;;;4.97;1.85;;;;;;;26.74;39.83;98166.30;1849094;77;20860;-58
2022/08/30 14:26:24;;;;;;;4.95;1.87;;;;;;;26.54;40.33;98164.33;1830376;77;20876;-61
2022/08/30 14:28:50;;;;;;;3.83;1.77;;;;;;;26.27;40.80;98163.30;1819745;77;21056;-62
2022/08/30 14:31:16;;;;;;;5.35;1.75;;;;;;;26.07;40.87;98168.92;1815537;79;21046;-63
2022/08/30 14:33:43;;;;;;;4.90;2.20;;;;;;;26.05;41.20;98169.87;1815908;79;21124;-59
2022/08/30 14:36:11;;;;;;;4.67;2.20;;;;;;;26.01;41.35;98165.55;1816217;79;20872;-62
2022/08/30 14:38:38;;;;;;;5.58;2.20;;;;;;;25.82;41.00;98168.02;1816273;79;20979;-63
2022/08/30 14:41:05;;;;;;;6.55;2.30;;;;;;;25.47;41.90;98171.39;1816248;79;20931;-59
2022/08/30 14:43:31;;;;;;;3.40;2.40;;;;;;;25.13;42.42;98170.75;1816407;79;21443;-64
2022/08/30 14:45:59;;;;;;;4.03;2.30;;;;;;;24.81;42.82;98167.58;1816286;79;22031;-60
2022/08/30 14:48:26;;;;;;;7.20;2.20;;;;;;;24.65;43.16;98173.87;1816323;79;20982;-59
2022/08/30 14:50:52;;;;;;;4.15;2.20;;;;;;;24.91;44.05;98165.51;1816401;79;20876;-61
2022/08/30 14:53:19;;;;;;;3.27;2.08;;;;;;;24.91;44.05;98165.51;1816296;79;20923;-63
2022/08/30 14:55:45;;;;;;;7.05;2.27;;;;;;;24.95;43.64;98159.47;1816313;79;20962;-60
2022/08/30 14:58:16;;;;;;;4.37;2.35;;;;;;;24.90;43.32;98163.92;1816290;79;21114;-61
2022/08/30 15:00:40;;;;;;;5.12;1.80;;;;;;;25.01;43.78;98166.17;1815878;79;20876;-61
2022/08/30 15:03:10;;;;;;;3.42;1.87;;;;;;;25.29;42.40;98159.52;1816554;79;20912;-65
2022/08/30 15:05:37;;;;;;;5.08;1.82;;;;;;;25.60;42.96;98159.52;1816526;79;20931;-59
2022/08/30 15:08:03;;;;;;;3.40;1.60;;;;;;;26.00;41.23;98153.02;1816870;79;20924;-58
2022/08/30 15:10:30;;;;;;;5.17;1.60;;;;;;;26.41;39.59;98151.55;1816463;79;21119;-63
2022/08/30 15:12:57;;;;;;;3.65;1.90;;;;;;;26.33;39.24;98148.62;1816389;79;20884;-64
2022/08/30 15:15:24;;;;;;;3.15;1.52;;;;;;;26.01;40.75;98160.84;1816466;79;20903;-61
2022/08/30 15:17:50;;;;;;;2.80;1.72;;;;;;;25.64;39.94;98152.09;1816708;79;21395;-63
2022/08/30 15:20:17;;;;;;;5.90;1.95;;;;;;;25.19;40.34;98157.48;1816757;79;21482;-65
2022/08/30 15:22:45;;;;;;;4.47;1.57;;;;;;;24.75;41.64;98156.74;1816516;79;21119;-68
2022/08/30 15:25:11;;;;;;;5.95;1.70;;;;;;;24.61;42.40;98159.36;1816689;79;21388;-67
2022/08/30 15:27:39;;;;;;;6.75;1.98;;;;;;;24.53;42.86;98161.82;1816531;79;20911;-66
2022/08/30 15:30:07;;;;;;;3.98;1.95;;;;;;;24.43;43.25;98154.50;1816413;79;20931;-64
2022/08/30 15:32:34;;;;;;;6.47;2.55;;;;;;;24.38;43.30;98142.52;1816571;79;20919;-64
2022/08/30 15:35:02;;;;;;;5.83;2.70;;;;;;;24.30;43.29;98151.84;1816522;79;21726;-65
2022/08/30 15:37:29;;;;;;;4.67;2.10;;;;;;;24.07;43.99;98158.03;1816367;79;20884;-66
2022/08/30 15:39:55;;;;;;;4.08;2.15;;;;;;;23.78;44.70;98160.22;1816392;79;20998;-66
2022/08/30 15:42:22;;;;;;;4.97;2.30;;;;;;;23.55;45.28;98155.44;1821501;78;20856;-66
2022/08/30 15:44:52;;;;;;;3.80;2.35;;;;;;;23.33;45.78;98150.80;1824614;78;20892;-69
2022/08/30 15:47:20;;;;;;;7.78;2.45;;;;;;;23.14;45.97;98154.45;1824506;78;21238;-63
2022/08/30 15:49:56;;;;;;;3.52;2.50;;;;;;;22.95;46.58;98158.64;1824411;78;20915;-58
2022/08/30 15:52:23;;;;;;;7.22;2.77;;;;;;;22.81;46.92;98156.48;1816966;78;20875;-59
2022/08/30 15:54:49;;;;;;;4.87;2.70;;;;;;;22.68;47.19;98150.98;1824454;78;20954;-61
2022/08/30 15:57:16;;;;;;;8.38;2.67;;;;;;;22.63;47.48;98151.32;1824597;78;20966;-60
2022/08/30 15:59:42;;;;;;;4.50;2.72;;;;;;;22.71;47.51;98152.99;1824661;78;21865;-58
2022/08/30 16:02:09;;;;;;;5.65;2.65;;;;;;;22.80;47.55;98145.34;1824416;78;20962;-61
2022/08/30 16:04:36;;;;;;;5.97;2.90;;;;;;;22.83;48.20;98152.02;1824575;78;20986;-59
2022/08/30 16:07:05;;;;;;;3.80;2.75;;;;;;;22.78;48.13;98144.92;1824862;78;20927;-59
2022/08/30 16:09:34;;;;;;;7.35;2.70;;;;;;;22.70;48.32;98152.01;1824600;78;21395;-60
2022/08/30 16:12:02;;;;;;;4.97;2.50;;;;;;;22.59;49.33;98145.56;1824448;78;21061;-61
2022/08/30 16:14:30;;;;;;;5.58;2.58;;;;;;;22.49;50.23;98149.09;1824489;78;21446;-60
2022/08/30 16:16:57;;;;;;;18.60;4.28;;;;;;;22.41;50.48;98148.77;1824444;78;20946;-59
2022/08/30 16:19:24;;;;;;;5.42;2.70;;;;;;;22.31;51.37;98142.54;1824451;78;20855;-60
2022/08/30 16:21:50;;;;;;;12.63;2.90;;;;;;;22.18;51.81;98148.53;1824555;78;20903;-61
2022/08/30 16:24:18;;;;;;;10.32;3.30;;;;;;;21.99;51.91;98145.84;1824456;78;21225;-60
2022/08/30 16:26:45;;;;;;;8.03;3.08;;;;;;;21.85;52.76;98147.72;1824480;78;21090;-59
2022/08/30 16:29:12;;;;;;;8.35;5.10;;;;;;;21.72;53.50;98147.04;1824558;78;20868;-60
2022/08/30 16:31:42;;;;;;;7.72;3.85;;;;;;;21.58;52.97;98160.38;1824841;78;20916;-60
2022/08/30 16:34:09;;;;;;;21.95;5.10;;;;;;;21.46;54.16;98155.05;1824862;78;20943;-59
2022/08/30 16:36:35;;;;;;;9.30;4.65;;;;;;;21.36;54.39;98150.75;1824554;78;21889;-60
2022/08/30 16:39:04;;;;;;;10.55;4.28;;;;;;;21.23;54.97;98150.08;1824381;78;20911;-61
2022/08/30 16:41:31;;;;;;;10.08;3.80;;;;;;;21.13;55.75;98154.14;1821196;78;21470;-61
2022/08/30 16:43:57;;;;;;;6.22;4.45;;;;;;;21.02;56.44;98151.73;1805541;79;20975;-61
2022/08/30 16:46:24;;;;;;;5.95;3.72;;;;;;;20.93;56.23;98159.30;1805684;79;20897;-61
2022/08/30 16:48:51;;;;;;;6.45;4.25;;;;;;;20.83;56.70;98159.03;1805531;79;21894;-61
2022/08/30 16:51:21;;;;;;;9.25;4.50;;;;;;;20.71;57.19;98155.84;1805485;79;20888;-60
2022/08/30 16:53:47;;;;;;;9.73;4.90;;;;;;;20.59;57.44;98168.73;1805809;79;20908;-60
2022/08/30 16:56:20;;;;;;;15.10;4.90;;;;;;;20.52;58.19;98174.00;1805626;79;20888;-59
2022/08/30 16:58:47;;;;;;;7.53;4.85;;;;;;;20.44;58.63;98175.17;1805557;79;20888;-61
2022/08/30 17:01:14;;;;;;;8.88;4.78;;;;;;;20.34;58.01;98174.36;1805493;79;21226;-60
2022/08/30 17:03:41;;;;;;;13.32;5.30;;;;;;;20.28;58.82;98174.94;1805566;79;20904;-61
2022/08/30 17:06:07;;;;;;;9.35;5.40;;;;;;;20.21;59.21;98174.16;1805763;79;20959;-61
2022/08/30 17:08:34;;;;;;;6.80;4.83;;;;;;;20.16;59.54;98175.77;1805576;79;20931;-60
2022/08/30 17:11:01;;;;;;;9.33;4.78;;;;;;;20.09;59.60;98178.30;1805541;79;20912;-60
2022/08/30 17:13:29;;;;;;;9.83;4.75;;;;;;;19.99;59.67;98182.89;1805506;79;21233;-60
2022/08/30 17:15:56;;;;;;;9.78;5.65;;;;;;;19.90;60.19;98183.61;1805946;79;20955;-60
2022/08/30 17:18:24;;;;;;;12.28;5.00;;;;;;;19.80;60.59;98182.73;1805517;79;20876;-61
2022/08/30 17:20:50;;;;;;;10.95;5.05;;;;;;;19.73;61.00;98189.33;1805559;79;21407;-61
2022/08/30 17:23:17;;;;;;;10.20;5.80;;;;;;;19.66;61.29;98198.08;1805503;79;20924;-62
2022/08/30 17:25:44;;;;;;;10.90;5.92;;;;;;;19.63;61.81;98197.95;1805616;79;21225;-60
2022/08/30 17:28:11;;;;;;;10.98;6.40;;;;;;;19.61;62.18;98202.39;1805439;79;20876;-61
2022/08/30 17:30:37;;;;;;;15.18;6.70;;;;;;;19.58;62.24;98205.78;1805617;79;20951;-60
2022/08/30 17:33:04;;;;;;;14.98;7.75;;;;;;;19.59;62.73;98205.22;1805596;79;21004;-61
2022/08/30 17:35:30;;;;;;;10.10;6.75;;;;;;;19.55;62.43;98205.66;1805524;79;20919;-59
2022/08/30 17:37:57;;;;;;;11.30;7.08;;;;;;;19.50;62.71;98208.64;1805493;79;21098;-60
2022/08/30 17:40:24;;;;;;;10.65;6.50;;;;;;;19.44;63.09;98201.28;1805521;79;20936;-59
2022/08/30 17:42:50;;;;;;;11.60;6.83;;;;;;;19.38;63.57;98204.03;1811608;79;21434;-60
2022/08/30 17:52:57;;;;;;;18.20;7.62;;;;;;;19.05;64.94;98206.06;1815773;79;21015;-61
2022/08/30 17:55:24;;;;;;;17.92;7.58;;;;;;;18.95;65.37;98210.58;1815832;79;20876;-60
2022/08/30 17:57:51;;;;;;;13.13;7.70;;;;;;;18.83;65.85;98208.66;1815814;79;21340;-60
2022/08/30 18:00:18;;;;;;;14.38;8.15;;;;;;;18.73;66.22;98211.80;1815738;79;21019;-60
2022/08/30 18:02:45;;;;;;;13.25;8.28;;;;;;;18.68;66.52;98215.28;1816143;79;21241;-60
2022/08/30 18:05:11;;;;;;;15.78;8.95;;;;;;;18.65;66.94;98207.84;1815883;79;21395;-61
2022/08/30 18:07:39;;;;;;;18.90;9.30;;;;;;;18.66;67.35;98215.63;1815845;79;20959;-62
2022/08/30 18:10:07;;;;;;;15.78;9.28;;;;;;;18.65;67.44;98212.71;1815790;79;21514;-60
2022/08/30 18:12:34;;;;;;;17.75;9.55;;;;;;;18.65;67.68;98211.36;1815754;79;21438;-60
2022/08/30 18:15:00;;;;;;;25.20;9.40;;;;;;;18.66;67.84;98215.63;1815743;79;21229;-60
2022/08/30 18:17:27;;;;;;;15.10;9.40;;;;;;;18.64;68.01;98219.25;1815773;79;20974;-62
2022/08/30 18:19:53;;;;;;;15.50;9.20;;;;;;;18.62;68.13;98221.52;1815950;79;21419;-62
2022/08/30 18:22:20;;;;;;;15.90;8.70;;;;;;;18.58;68.44;98220.61;1815789;79;20856;-61
2022/08/30 18:24:47;;;;;;;13.70;8.88;;;;;;;18.51;68.63;98220.38;1815871;79;20955;-62
2022/08/30 18:27:14;;;;;;;12.25;7.70;;;;;;;18.49;68.80;98221.83;1815839;79;21203;-62
2022/08/30 18:29:40;;;;;;;11.35;7.90;;;;;;;18.49;69.14;98221.25;1815672;79;20876;-61
2022/08/30 18:32:07;;;;;;;14.65;8.50;;;;;;;18.52;69.03;98222.50;1815823;79;20967;-60
2022/08/30 18:34:33;;;;;;;13.18;8.58;;;;;;;18.56;68.68;98228.27;1815706;79;20856;-60
2022/08/30 18:37:00;;;;;;;15.10;9.33;;;;;;;18.63;68.47;98225.80;1815849;79;20845;-61
2022/08/30 18:39:26;;;;;;;14.73;9.63;;;;;;;18.68;68.35;98227.50;1815840;79;21236;-62
2022/08/30 18:41:53;;;;;;;12.90;9.53;;;;;;;18.70;68.33;98230.69;1814986;79;20876;-62
2022/08/30 18:44:20;;;;;;;18.42;11.00;;;;;;;18.74;68.19;98235.10;1805597;79;20939;-62
2022/08/30 18:46:46;;;;;;;16.70;10.00;;;;;;;18.75;68.26;98240.73;1754201;81;20967;-62
2022/08/30 18:49:13;;;;;;;16.42;10.65;;;;;;;18.75;68.26;98236.67;1754277;81;20892;-62
2022/08/30 18:51:40;;;;;;;15.75;10.15;;;;;;;18.76;68.31;98232.84;1805570;79;21372;-62
2022/08/30 18:54:07;;;;;;;16.80;10.50;;;;;;;18.77;68.39;98239.84;1754158;81;20886;-60
2022/08/30 18:56:35;;;;;;;16.57;11.00;;;;;;;18.75;68.58;98241.30;1805545;79;21364;-59
2022/08/30 18:59:04;;;;;;;14.93;10.20;;;;;;;18.72;68.86;98240.08;1754207;81;20901;-61